createdAt,value
2022-09-16T00:04:57.400Z,29.6
2022-09-16T00:09:57.314Z,30.3
2022-09-16T00:14:57.328Z,31.5
2022-09-16T00:20:06.443Z,31.6
2022-09-16T00:24:58.191Z,31.6
2022-09-16T00:29:57.381Z,33.2
2022-09-16T00:34:57.327Z,35.6
2022-09-16T00:39:57.370Z,36.8
2022-09-16T00:44:57.309Z,39.3
2022-09-16T00:49:57.351Z,43.2
2022-09-16T00:54:57.371Z,46.4
2022-09-16T00:59:57.399Z,50.2
2022-09-16T01:04:57.397Z,50.2
2022-09-16T01:09:57.417Z,50.6
2022-09-16T01:14:57.334Z,50.2
2022-09-16T01:19:57.365Z,46.8
2022-09-16T01:24:57.378Z,46.4
2022-09-16T01:29:57.359Z,45.8
2022-09-16T01:34:57.361Z,45.6
2022-09-16T01:39:57.412Z,45.8
2022-09-16T01:44:57.368Z,45.8
2022-09-16T01:49:57.457Z,45.8
2022-09-16T01:54:57.376Z,48.9
2022-09-16T01:59:57.392Z,48.9
2022-09-16T02:04:57.376Z,49.4
2022-09-16T02:09:57.399Z,49.4
2022-09-16T02:14:57.363Z,48.9
2022-09-16T02:19:57.394Z,47.2
2022-09-16T02:24:57.542Z,47.2
2022-09-16T02:29:57.411Z,47.2
2022-09-16T02:34:57.273Z,47.5
2022-09-16T02:39:57.337Z,47.5
2022-09-16T02:44:57.286Z,48.8
2022-09-16T02:49:57.369Z,48.8
2022-09-16T02:54:57.306Z,48.8
2022-09-16T02:59:57.306Z,47.5
2022-09-16T03:04:57.402Z,46.2
2022-09-16T03:09:57.282Z,41.1
2022-09-16T03:14:57.279Z,39.2
2022-09-16T03:19:57.411Z,39.1
2022-09-16T03:24:57.522Z,39.1
2022-09-16T03:29:57.308Z,37.7
2022-09-16T03:34:57.296Z,37.7
2022-09-16T03:39:57.500Z,37.7
2022-09-16T03:44:57.311Z,38.9
2022-09-16T03:49:57.318Z,37.7
2022-09-16T03:54:57.286Z,37.7
2022-09-16T03:59:57.417Z,37.1
2022-09-16T04:04:57.316Z,36.9
2022-09-16T04:09:57.310Z,36.6
2022-09-16T04:14:57.431Z,34.5
2022-09-16T04:19:57.294Z,33.5
2022-09-16T04:24:57.489Z,30.8
2022-09-16T04:29:57.295Z,30.8
2022-09-16T04:34:57.492Z,30.8
2022-09-16T04:40:04.346Z,30.8
2022-09-16T04:44:57.483Z,30.8
2022-09-16T04:49:57.319Z,30.7
2022-09-16T04:55:00.328Z,32.5
2022-09-16T04:59:57.348Z,34.9
2022-09-16T05:04:57.306Z,33.7
2022-09-16T05:09:57.336Z,34
2022-09-16T05:14:57.425Z,34.5
2022-09-16T05:19:57.343Z,34
2022-09-16T05:24:57.429Z,34
2022-09-16T05:29:57.349Z,33.7
2022-09-16T05:34:58.470Z,33.7
2022-09-16T05:39:57.369Z,33.7
2022-09-16T05:44:57.316Z,33.6
2022-09-16T05:49:57.319Z,32.5
2022-09-16T05:54:57.375Z,32.4
2022-09-16T05:59:57.352Z,32
2022-09-16T06:04:57.376Z,29.4
2022-09-16T06:09:57.347Z,26.9
2022-09-16T06:14:57.329Z,26.6
2022-09-16T06:19:57.332Z,24.8
2022-09-16T06:49:57.525Z,274.6
2022-09-16T06:54:57.727Z,143.7
2022-09-16T07:00:32.918Z,12.8
2022-09-16T07:19:57.616Z,57
2022-09-16T07:25:05.457Z,35.35
2022-09-16T07:30:00.770Z,13.7
2022-09-16T07:34:57.400Z,12.95
2022-09-16T07:39:57.376Z,12.2
2022-09-16T07:44:58.885Z,12.95
2022-09-16T07:49:57.572Z,13.4
2022-09-16T07:54:57.364Z,12.2
2022-09-16T07:59:57.375Z,9.5
2022-09-16T08:04:57.620Z,8.8
2022-09-16T08:09:57.385Z,9
2022-09-16T08:14:57.390Z,9
2022-09-16T08:19:57.416Z,8.8
2022-09-16T08:24:57.403Z,8.8
2022-09-16T08:29:57.465Z,8.8
2022-09-16T08:34:57.414Z,9
2022-09-16T08:39:57.498Z,12.1
2022-09-16T08:44:57.474Z,18.9
2022-09-16T08:49:57.409Z,12.1
2022-09-16T08:54:57.409Z,12.1
2022-09-16T09:15:26.157Z,4.8
2022-09-16T09:19:57.474Z,6.25
2022-09-16T09:24:57.511Z,7.7
2022-09-16T09:29:57.466Z,7
2022-09-16T09:34:57.841Z,7.3
2022-09-16T09:40:00.333Z,6.8
2022-09-16T09:45:02.078Z,6.7
2022-09-16T09:49:57.437Z,6.7
2022-09-16T09:54:57.429Z,6.7
2022-09-16T09:59:57.414Z,6.3
2022-09-16T10:04:57.489Z,6.7
2022-09-16T10:09:57.480Z,6.7
2022-09-16T10:14:57.478Z,6.7
2022-09-16T10:19:57.422Z,6.9
2022-09-16T10:24:57.468Z,11
2022-09-16T10:29:57.467Z,10.7
2022-09-16T10:34:57.496Z,10.7
2022-09-16T10:39:58.027Z,10.7
2022-09-16T10:44:57.452Z,9.4
2022-09-16T10:49:57.646Z,10.7
2022-09-16T10:54:57.688Z,9.4
2022-09-16T10:59:57.625Z,8.5
2022-09-16T11:04:57.487Z,8.5
2022-09-16T11:09:57.442Z,8.5
2022-09-16T11:14:57.434Z,8.5
2022-09-16T11:19:57.516Z,6.7
2022-09-16T11:24:57.949Z,6.7
2022-09-16T11:29:57.459Z,6.7
2022-09-16T11:34:57.498Z,6.7
2022-09-16T11:39:57.540Z,6.7
2022-09-16T11:44:57.459Z,7
2022-09-16T11:49:57.749Z,8.4
2022-09-16T11:54:57.570Z,8.4
2022-09-16T11:59:57.482Z,8.4
2022-09-16T12:04:57.477Z,8.9
2022-09-16T12:09:57.502Z,8.9
2022-09-16T12:15:06.098Z,7.8
2022-09-16T12:19:57.482Z,7.8
2022-09-16T12:24:57.503Z,7.8
2022-09-16T12:29:57.503Z,8.1
2022-09-16T12:34:57.492Z,8.4
2022-09-16T12:39:57.570Z,8.4
2022-09-16T12:44:57.451Z,9.4
2022-09-16T12:49:57.543Z,9.4
2022-09-16T12:55:08.400Z,9.4
2022-09-16T12:59:57.505Z,9.4
2022-09-16T13:04:57.469Z,8.7
2022-09-16T13:09:57.478Z,8.7
2022-09-16T13:14:57.513Z,8.7
2022-09-16T13:19:57.514Z,8
2022-09-16T13:24:57.502Z,8
2022-09-16T13:29:57.525Z,8.7
2022-09-16T13:34:57.737Z,8.7
2022-09-16T13:39:57.542Z,8.7
2022-09-16T13:44:58.962Z,8.7
2022-09-16T13:49:57.526Z,8.3
2022-09-16T13:55:12.090Z,8.6
2022-09-16T13:59:57.518Z,8.6
2022-09-16T14:04:57.547Z,8.3
2022-09-16T14:09:57.786Z,8.3
2022-09-16T14:14:57.582Z,8.3
2022-09-16T14:19:57.547Z,7.4
2022-09-16T14:25:05.990Z,7.3
2022-09-16T14:29:57.546Z,7.3
2022-09-16T14:34:57.539Z,7.2
2022-09-16T14:39:57.573Z,7.2
2022-09-16T14:44:57.767Z,7
2022-09-16T14:49:57.663Z,7
2022-09-16T14:54:57.574Z,6.9
2022-09-16T14:59:57.559Z,6.9
2022-09-16T15:04:57.550Z,6.9
2022-09-16T15:09:57.530Z,7
2022-09-16T15:14:57.589Z,6.1
2022-09-16T15:19:57.554Z,7
2022-09-16T15:24:57.499Z,6.1
2022-09-16T15:29:57.498Z,7.2
2022-09-16T15:34:57.611Z,9.7
2022-09-16T15:39:57.626Z,8.4
2022-09-16T15:44:57.551Z,8.4
2022-09-16T15:49:57.571Z,8.4
2022-09-16T15:54:57.530Z,6.5
2022-09-16T15:59:57.585Z,6.5
2022-09-16T16:04:57.531Z,6.2
2022-09-16T16:09:57.624Z,4.8
2022-09-16T16:14:57.553Z,4.8
2022-09-16T16:19:58.671Z,4.2
2022-09-16T16:24:57.501Z,4
2022-09-16T16:29:57.701Z,4
2022-09-16T16:34:57.546Z,4
2022-09-16T16:39:57.733Z,5.4
2022-09-16T16:44:57.543Z,5.4
2022-09-16T16:49:57.556Z,3.7
2022-09-16T16:54:57.523Z,3.9
2022-09-16T16:59:57.574Z,5.2
2022-09-16T17:04:57.608Z,4.4
2022-09-16T17:09:57.686Z,4.4
2022-09-16T17:14:58.080Z,4.4
2022-09-16T17:19:57.555Z,5.1
2022-09-16T17:24:57.557Z,5.1
2022-09-16T17:29:57.640Z,5.2
2022-09-16T17:34:57.584Z,5.1
2022-09-16T17:39:57.646Z,5.1
2022-09-16T17:44:57.576Z,5.1
2022-09-16T17:49:57.579Z,5.5
2022-09-16T17:54:57.562Z,4.8
2022-09-16T17:59:57.585Z,4.5
2022-09-16T18:04:57.658Z,4.5
2022-09-16T18:09:57.601Z,4.5
2022-09-16T18:14:57.607Z,4.8
2022-09-16T18:19:57.607Z,5.5
2022-09-16T18:24:57.607Z,5.2
2022-09-16T18:29:57.625Z,6.3
2022-09-16T18:34:57.625Z,6.8
2022-09-16T18:39:57.639Z,6.3
2022-09-16T18:44:57.642Z,7.1
2022-09-16T18:49:57.624Z,7.1
2022-09-16T18:54:57.608Z,6.8
2022-09-16T18:59:57.639Z,6.9
2022-09-16T19:04:57.597Z,6.8
2022-09-16T19:09:57.643Z,6
2022-09-16T19:14:57.603Z,6.8
2022-09-16T19:19:57.629Z,6
2022-09-16T19:24:57.640Z,6
2022-09-16T19:29:57.611Z,6
2022-09-16T19:34:57.625Z,5.8
2022-09-16T19:39:57.651Z,6
2022-09-16T19:44:57.621Z,6.4
2022-09-16T19:49:57.660Z,6.4
2022-09-16T19:54:57.701Z,7.2
2022-09-16T19:59:57.609Z,7.2
2022-09-16T20:04:57.594Z,7.2
2022-09-16T20:09:57.630Z,7.2
2022-09-16T20:14:57.653Z,5.4
2022-09-16T20:19:57.663Z,5.2
2022-09-16T20:25:18.991Z,5.2
2022-09-16T20:29:57.626Z,5
2022-09-16T20:34:57.624Z,5
2022-09-16T20:39:57.628Z,5
2022-09-16T20:44:57.660Z,4.8
2022-09-16T20:49:57.654Z,4.8
2022-09-16T20:54:57.667Z,5
2022-09-16T20:59:57.658Z,4.6
2022-09-16T21:04:57.654Z,4.6
2022-09-16T21:09:57.617Z,4.6
2022-09-16T21:14:58.684Z,4.9
2022-09-16T21:19:58.640Z,4.9
2022-09-16T21:24:57.599Z,4.9
2022-09-16T21:29:57.655Z,4.9
2022-09-16T21:34:57.876Z,5
2022-09-16T21:39:57.752Z,5.4
2022-09-16T21:44:57.637Z,5.4
2022-09-16T21:49:57.653Z,5.4
2022-09-16T21:54:57.659Z,5.4
2022-09-16T21:59:57.657Z,5.4
2022-09-16T22:04:57.730Z,5.4
2022-09-16T22:09:57.689Z,5.4
2022-09-16T22:14:57.666Z,5.4
2022-09-16T22:19:57.674Z,5.4
2022-09-16T22:24:57.666Z,5.5
2022-09-16T22:29:57.711Z,5.6
2022-09-16T22:34:57.650Z,5.9
2022-09-16T22:39:57.684Z,6.2
2022-09-16T22:44:57.682Z,6.2
2022-09-16T22:49:57.663Z,6.2
2022-09-16T22:54:57.697Z,6.2
2022-09-16T22:59:57.681Z,6.2
2022-09-16T23:04:57.682Z,5.3
2022-09-16T23:09:57.671Z,5.3
2022-09-16T23:14:57.687Z,4.7
2022-09-16T23:19:57.691Z,4
2022-09-16T23:24:57.692Z,4
2022-09-16T23:29:57.672Z,4
2022-09-16T23:34:58.472Z,4
2022-09-16T23:39:57.694Z,4.5
2022-09-16T23:44:57.721Z,4.5
2022-09-16T23:49:58.167Z,4.5
2022-09-16T23:54:57.728Z,4.5
2022-09-16T23:59:57.696Z,4.6
